Macomb, Oklahoma
Current Conditions -  °F | °C
As of 4:15 PM on Friday 24 Oct 2014 (Local Time) from KOUN Reporting Station
Clear Clear  
Wind Chill: 82°   Ceiling: Unl
Heat Index: 83°   Visibility: 10mi
Dew Point: 63°   Wind: 14mph
Humidity: 51%   Direction: 180°S
Pressure: 30.04"   Gusts: 21mph
Location:  35.15°N, 97.01°W
Report Text: KOUN 242115Z AUTO 18012G18KT 10SM CLR 28/17 A3004 RMK AO2
Loading
Personal Weather Stations






























Interactive Weather Map
Tropical Storm Tracking
New forecast layout! Learn more

10-Day Weather Forecast

Advertisements
Track Severe Weather on mobile